Disclaimer

Please do not use the information listed here in-flight or in-navigation, as they are not provided to us by the airports but are provided by volunteers, so they might be outdated.

Search


Regions


Airport information page

Radio informations:
Tower (TWR) - 130.85 MHz
PMSV METRO - 258.925 MHz
GND/CLNC DEL - 143.425 MHz
Automatic Terminal Information Service (ATIS) - 140.325 MHz

Airport informations:
Latitude: 44° 27' 31.16" N
Longitude: 018° 43' 29.22" E
Elevation: 784 feet - 239 meters
Operating hours: N/A
Operating agency: Military-civil joint use airport
Timezone: UTC+1(+2DT)
Fuel: Unknown fuel type or whether there is any fuel.

Runway information:
09/27 - 8152 x 148 feet< - >2485 x 45 meters

Recent METARs:
LQTZ 211900Z 10003KT 6000 BKN012 OVC018 04/03 Q1018
LQTZ 211930Z 09003KT 5000 BR BKN013 OVC018 04/03 Q1018
LQTZ 212000Z 08004KT 6000 BKN013 OVC018 04/03 Q1018

Airport on the map: